createdAt,value
2016-04-29T00:00:13.470Z,22.69
2016-04-29T00:01:13.505Z,22.63
2016-04-29T00:02:13.555Z,22.6
2016-04-29T00:03:13.572Z,22.63
2016-04-29T00:04:13.638Z,22.64
2016-04-29T00:05:13.672Z,22.69
2016-04-29T00:06:13.705Z,22.66
2016-04-29T00:07:13.755Z,22.6
2016-04-29T00:08:13.788Z,22.59
2016-04-29T00:09:13.823Z,22.54
2016-04-29T00:10:13.888Z,22.66
2016-04-29T00:11:13.938Z,22.63
2016-04-29T00:12:13.957Z,22.6
2016-04-29T00:13:13.989Z,22.67
2016-04-29T00:14:14.054Z,22.6
2016-04-29T00:15:14.394Z,22.63
2016-04-29T00:16:14.217Z,22.61
2016-04-29T00:17:14.307Z,22.66
2016-04-29T00:18:14.380Z,22.7
2016-04-29T00:19:14.461Z,22.55
2016-04-29T00:20:14.525Z,22.61
2016-04-29T00:21:14.572Z,22.63
2016-04-29T00:22:14.621Z,22.54
2016-04-29T00:23:14.684Z,22.6
2016-04-29T00:24:14.714Z,22.57
2016-04-29T00:25:14.784Z,22.55
2016-04-29T00:26:14.822Z,22.54
2016-04-29T00:27:14.877Z,22.6
2016-04-29T00:28:14.900Z,22.6
2016-04-29T00:29:14.969Z,22.55
2016-04-29T00:30:15.537Z,22.49
2016-04-29T00:31:15.057Z,22.55
2016-04-29T00:32:15.093Z,22.49
2016-04-29T00:33:15.144Z,22.55
2016-04-29T00:34:15.180Z,22.49
2016-04-29T00:35:15.230Z,22.49
2016-04-29T00:36:15.249Z,22.45
2016-04-29T00:37:15.315Z,22.49
2016-04-29T00:38:15.349Z,22.49
2016-04-29T00:39:15.384Z,22.49
2016-04-29T00:40:15.435Z,22.52
2016-04-29T00:41:15.469Z,22.49
2016-04-29T00:42:15.518Z,22.49
2016-04-29T00:43:15.553Z,22.51
